sensor_id;sensor_type;location;lat;lon;timestamp;P1;durP1;ratioP1;P2;durP2;ratioP2
11287;SDS011;5700;50.996;7.044;2023-03-21T00:02:24;6.68;;;2.13;;
11287;SDS011;5700;50.996;7.044;2023-03-21T00:05:27;5.75;;;2.00;;
11287;SDS011;5700;50.996;7.044;2023-03-21T00:08:29;4.57;;;1.85;;
11287;SDS011;5700;50.996;7.044;2023-03-21T00:11:31;6.93;;;1.75;;
11287;SDS011;5700;50.996;7.044;2023-03-21T00:14:32;5.78;;;1.83;;
11287;SDS011;5700;50.996;7.044;2023-03-21T00:17:33;4.07;;;1.70;;
11287;SDS011;5700;50.996;7.044;2023-03-21T00:20:39;4.70;;;1.85;;
11287;SDS011;5700;50.996;7.044;2023-03-21T00:23:41;4.20;;;1.83;;
11287;SDS011;5700;50.996;7.044;2023-03-21T00:26:43;4.10;;;1.55;;
11287;SDS011;5700;50.996;7.044;2023-03-21T00:29:45;4.75;;;1.70;;
11287;SDS011;5700;50.996;7.044;2023-03-21T00:32:48;3.92;;;1.70;;
11287;SDS011;5700;50.996;7.044;2023-03-21T00:35:51;6.97;;;1.60;;
11287;SDS011;5700;50.996;7.044;2023-03-21T00:38:53;6.80;;;2.00;;
11287;SDS011;5700;50.996;7.044;2023-03-21T00:41:54;4.30;;;1.65;;
11287;SDS011;5700;50.996;7.044;2023-03-21T00:44:56;4.03;;;1.60;;
11287;SDS011;5700;50.996;7.044;2023-03-21T00:47:57;5.68;;;1.63;;
11287;SDS011;5700;50.996;7.044;2023-03-21T00:51:00;5.22;;;2.00;;
11287;SDS011;5700;50.996;7.044;2023-03-21T00:54:02;2.88;;;1.75;;
11287;SDS011;5700;50.996;7.044;2023-03-21T00:57:04;4.43;;;1.50;;
11287;SDS011;5700;50.996;7.044;2023-03-21T01:00:07;7.32;;;1.88;;
11287;SDS011;5700;50.996;7.044;2023-03-21T01:03:10;4.40;;;1.52;;
11287;SDS011;5700;50.996;7.044;2023-03-21T01:06:13;3.35;;;1.75;;
11287;SDS011;5700;50.996;7.044;2023-03-21T01:09:19;5.63;;;2.17;;
11287;SDS011;5700;50.996;7.044;2023-03-21T01:12:22;12.20;;;2.28;;
11287;SDS011;5700;50.996;7.044;2023-03-21T01:15:23;3.83;;;1.85;;
11287;SDS011;5700;50.996;7.044;2023-03-21T01:18:26;4.30;;;1.88;;
11287;SDS011;5700;50.996;7.044;2023-03-21T01:21:30;6.18;;;1.92;;
11287;SDS011;5700;50.996;7.044;2023-03-21T01:24:32;4.90;;;1.83;;
11287;SDS011;5700;50.996;7.044;2023-03-21T01:27:33;6.38;;;2.10;;
11287;SDS011;5700;50.996;7.044;2023-03-21T01:30:35;3.17;;;1.73;;
11287;SDS011;5700;50.996;7.044;2023-03-21T01:33:36;7.47;;;2.00;;
11287;SDS011;5700;50.996;7.044;2023-03-21T01:36:39;4.38;;;2.05;;
11287;SDS011;5700;50.996;7.044;2023-03-21T01:39:41;4.95;;;2.20;;
11287;SDS011;5700;50.996;7.044;2023-03-21T01:42:42;6.75;;;2.80;;
11287;SDS011;5700;50.996;7.044;2023-03-21T01:49:21;6.68;;;3.20;;
11287;SDS011;5700;50.996;7.044;2023-03-21T01:52:27;4.28;;;2.40;;
11287;SDS011;5700;50.996;7.044;2023-03-21T01:55:29;3.90;;;2.47;;
11287;SDS011;5700;50.996;7.044;2023-03-21T01:58:31;5.28;;;2.63;;
11287;SDS011;5700;50.996;7.044;2023-03-21T02:01:33;7.03;;;2.50;;
11287;SDS011;5700;50.996;7.044;2023-03-21T02:04:37;9.45;;;2.78;;
11287;SDS011;5700;50.996;7.044;2023-03-21T02:07:40;8.73;;;2.70;;
11287;SDS011;5700;50.996;7.044;2023-03-21T02:10:43;5.82;;;2.30;;
11287;SDS011;5700;50.996;7.044;2023-03-21T02:13:46;7.65;;;2.75;;
11287;SDS011;5700;50.996;7.044;2023-03-21T02:16:49;11.00;;;3.10;;
11287;SDS011;5700;50.996;7.044;2023-03-21T02:20:00;7.40;;;2.20;;
11287;SDS011;5700;50.996;7.044;2023-03-21T02:23:31;7.63;;;2.75;;
11287;SDS011;5700;50.996;7.044;2023-03-21T02:27:00;6.45;;;2.22;;
11287;SDS011;5700;50.996;7.044;2023-03-21T02:33:35;8.32;;;2.20;;
11287;SDS011;5700;50.996;7.044;2023-03-21T02:36:56;5.50;;;2.03;;
11287;SDS011;5700;50.996;7.044;2023-03-21T02:40:06;3.97;;;2.10;;
11287;SDS011;5700;50.996;7.044;2023-03-21T02:43:12;8.35;;;2.67;;
11287;SDS011;5700;50.996;7.044;2023-03-21T02:46:17;5.90;;;2.25;;
11287;SDS011;5700;50.996;7.044;2023-03-21T02:49:20;5.05;;;2.17;;
11287;SDS011;5700;50.996;7.044;2023-03-21T02:52:27;5.55;;;2.05;;
11287;SDS011;5700;50.996;7.044;2023-03-21T02:55:30;5.15;;;2.03;;
11287;SDS011;5700;50.996;7.044;2023-03-21T02:58:32;4.28;;;1.80;;
11287;SDS011;5700;50.996;7.044;2023-03-21T03:01:34;5.20;;;1.80;;
11287;SDS011;5700;50.996;7.044;2023-03-21T03:04:35;4.50;;;2.25;;
11287;SDS011;5700;50.996;7.044;2023-03-21T03:07:39;4.57;;;1.88;;
11287;SDS011;5700;50.996;7.044;2023-03-21T03:10:49;6.80;;;2.08;;
11287;SDS011;5700;50.996;7.044;2023-03-21T03:14:00;7.07;;;2.05;;
11287;SDS011;5700;50.996;7.044;2023-03-21T03:17:16;6.75;;;2.50;;
11287;SDS011;5700;50.996;7.044;2023-03-21T03:20:23;6.28;;;2.10;;
11287;SDS011;5700;50.996;7.044;2023-03-21T03:23:31;3.38;;;1.60;;
11287;SDS011;5700;50.996;7.044;2023-03-21T03:26:36;4.88;;;1.80;;
11287;SDS011;5700;50.996;7.044;2023-03-21T03:29:40;4.75;;;2.10;;
11287;SDS011;5700;50.996;7.044;2023-03-21T03:32:44;6.03;;;1.88;;
11287;SDS011;5700;50.996;7.044;2023-03-21T03:35:48;4.07;;;1.65;;
11287;SDS011;5700;50.996;7.044;2023-03-21T03:38:52;7.70;;;1.63;;
11287;SDS011;5700;50.996;7.044;2023-03-21T03:41:55;4.85;;;2.00;;
11287;SDS011;5700;50.996;7.044;2023-03-21T03:44:59;5.32;;;2.03;;
11287;SDS011;5700;50.996;7.044;2023-03-21T03:48:03;2.92;;;1.60;;
11287;SDS011;5700;50.996;7.044;2023-03-21T03:51:06;3.92;;;1.60;;
11287;SDS011;5700;50.996;7.044;2023-03-21T03:54:12;5.15;;;2.28;;
11287;SDS011;5700;50.996;7.044;2023-03-21T03:57:16;5.22;;;2.05;;
11287;SDS011;5700;50.996;7.044;2023-03-21T04:00:18;6.63;;;2.00;;
11287;SDS011;5700;50.996;7.044;2023-03-21T04:03:21;6.82;;;2.83;;
11287;SDS011;5700;50.996;7.044;2023-03-21T04:06:22;4.90;;;1.77;;
11287;SDS011;5700;50.996;7.044;2023-03-21T04:09:25;2.22;;;1.50;;
11287;SDS011;5700;50.996;7.044;2023-03-21T04:12:27;6.80;;;1.77;;
11287;SDS011;5700;50.996;7.044;2023-03-21T04:15:29;3.55;;;1.58;;
11287;SDS011;5700;50.996;7.044;2023-03-21T04:18:30;4.50;;;1.77;;
11287;SDS011;5700;50.996;7.044;2023-03-21T04:21:32;2.85;;;1.55;;
11287;SDS011;5700;50.996;7.044;2023-03-21T04:24:34;7.57;;;2.05;;
11287;SDS011;5700;50.996;7.044;2023-03-21T04:27:36;4.63;;;2.10;;
11287;SDS011;5700;50.996;7.044;2023-03-21T04:30:38;4.55;;;1.67;;
11287;SDS011;5700;50.996;7.044;2023-03-21T04:33:40;5.05;;;2.30;;
11287;SDS011;5700;50.996;7.044;2023-03-21T04:36:42;5.68;;;1.83;;
11287;SDS011;5700;50.996;7.044;2023-03-21T04:39:46;3.17;;;1.55;;
11287;SDS011;5700;50.996;7.044;2023-03-21T04:42:47;7.45;;;1.75;;
11287;SDS011;5700;50.996;7.044;2023-03-21T04:45:49;4.32;;;2.08;;
11287;SDS011;5700;50.996;7.044;2023-03-21T04:48:50;5.10;;;1.55;;
11287;SDS011;5700;50.996;7.044;2023-03-21T04:51:52;3.17;;;1.65;;
11287;SDS011;5700;50.996;7.044;2023-03-21T04:54:55;4.85;;;1.95;;
11287;SDS011;5700;50.996;7.044;2023-03-21T04:57:56;6.40;;;2.20;;
11287;SDS011;5700;50.996;7.044;2023-03-21T05:00:57;4.65;;;2.00;;
11287;SDS011;5700;50.996;7.044;2023-03-21T05:04:02;8.75;;;2.13;;
11287;SDS011;5700;50.996;7.044;2023-03-21T05:07:04;5.40;;;2.25;;
11287;SDS011;5700;50.996;7.044;2023-03-21T05:10:08;5.55;;;1.80;;
11287;SDS011;5700;50.996;7.044;2023-03-21T05:13:10;6.53;;;2.50;;
11287;SDS011;5700;50.996;7.044;2023-03-21T05:16:12;6.25;;;2.30;;
11287;SDS011;5700;50.996;7.044;2023-03-21T05:19:13;4.75;;;2.05;;
11287;SDS011;5700;50.996;7.044;2023-03-21T05:22:16;7.15;;;2.30;;
11287;SDS011;5700;50.996;7.044;2023-03-21T05:25:19;6.35;;;2.67;;
11287;SDS011;5700;50.996;7.044;2023-03-21T05:28:33;12.85;;;2.53;;
11287;SDS011;5700;50.996;7.044;2023-03-21T05:31:35;3.63;;;2.05;;
11287;SDS011;5700;50.996;7.044;2023-03-21T05:34:37;7.10;;;2.20;;
11287;SDS011;5700;50.996;7.044;2023-03-21T05:37:38;4.90;;;2.05;;
11287;SDS011;5700;50.996;7.044;2023-03-21T05:40:41;7.60;;;2.28;;
11287;SDS011;5700;50.996;7.044;2023-03-21T05:43:46;9.23;;;3.00;;
11287;SDS011;5700;50.996;7.044;2023-03-21T05:46:47;8.15;;;2.50;;
11287;SDS011;5700;50.996;7.044;2023-03-21T05:49:49;8.13;;;2.25;;
11287;SDS011;5700;50.996;7.044;2023-03-21T05:52:51;11.20;;;2.60;;
11287;SDS011;5700;50.996;7.044;2023-03-21T05:55:53;5.85;;;2.60;;
11287;SDS011;5700;50.996;7.044;2023-03-21T05:58:55;7.70;;;2.55;;
11287;SDS011;5700;50.996;7.044;2023-03-21T06:01:56;7.38;;;2.65;;
11287;SDS011;5700;50.996;7.044;2023-03-21T06:04:58;3.97;;;2.10;;
11287;SDS011;5700;50.996;7.044;2023-03-21T06:07:59;6.50;;;2.50;;
11287;SDS011;5700;50.996;7.044;2023-03-21T06:11:02;7.38;;;2.03;;
11287;SDS011;5700;50.996;7.044;2023-03-21T06:14:03;8.38;;;1.75;;
11287;SDS011;5700;50.996;7.044;2023-03-21T06:17:05;4.35;;;1.30;;
11287;SDS011;5700;50.996;7.044;2023-03-21T06:20:07;3.72;;;1.30;;
11287;SDS011;5700;50.996;7.044;2023-03-21T06:23:09;5.05;;;1.33;;
11287;SDS011;5700;50.996;7.044;2023-03-21T06:26:12;3.67;;;1.40;;
11287;SDS011;5700;50.996;7.044;2023-03-21T06:29:13;5.07;;;1.17;;
11287;SDS011;5700;50.996;7.044;2023-03-21T06:32:15;2.97;;;1.23;;
11287;SDS011;5700;50.996;7.044;2023-03-21T06:35:16;5.47;;;1.40;;
11287;SDS011;5700;50.996;7.044;2023-03-21T06:38:18;2.47;;;1.50;;
11287;SDS011;5700;50.996;7.044;2023-03-21T06:41:21;3.22;;;2.17;;
11287;SDS011;5700;50.996;7.044;2023-03-21T06:44:22;8.40;;;2.10;;
11287;SDS011;5700;50.996;7.044;2023-03-21T06:47:24;2.72;;;1.13;;
11287;SDS011;5700;50.996;7.044;2023-03-21T06:50:25;9.15;;;2.20;;
11287;SDS011;5700;50.996;7.044;2023-03-21T06:53:27;2.70;;;1.55;;
11287;SDS011;5700;50.996;7.044;2023-03-21T06:56:30;2.50;;;1.60;;
11287;SDS011;5700;50.996;7.044;2023-03-21T06:59:31;4.43;;;1.80;;
11287;SDS011;5700;50.996;7.044;2023-03-21T07:02:33;4.65;;;1.63;;
11287;SDS011;5700;50.996;7.044;2023-03-21T07:05:34;3.60;;;1.60;;
11287;SDS011;5700;50.996;7.044;2023-03-21T07:08:36;2.33;;;1.20;;
11287;SDS011;5700;50.996;7.044;2023-03-21T07:11:39;6.15;;;1.77;;
11287;SDS011;5700;50.996;7.044;2023-03-21T07:14:40;2.33;;;1.20;;
11287;SDS011;5700;50.996;7.044;2023-03-21T07:17:41;7.40;;;2.08;;
11287;SDS011;5700;50.996;7.044;2023-03-21T07:20:45;4.03;;;1.92;;
11287;SDS011;5700;50.996;7.044;2023-03-21T07:23:49;7.40;;;2.28;;
11287;SDS011;5700;50.996;7.044;2023-03-21T07:26:52;11.68;;;2.80;;
11287;SDS011;5700;50.996;7.044;2023-03-21T07:29:54;6.63;;;3.22;;
11287;SDS011;5700;50.996;7.044;2023-03-21T07:32:55;6.80;;;3.13;;
11287;SDS011;5700;50.996;7.044;2023-03-21T07:35:57;8.32;;;2.85;;
11287;SDS011;5700;50.996;7.044;2023-03-21T07:38:58;6.13;;;2.40;;
11287;SDS011;5700;50.996;7.044;2023-03-21T07:42:01;9.65;;;3.05;;
11287;SDS011;5700;50.996;7.044;2023-03-21T07:45:03;9.20;;;3.35;;
11287;SDS011;5700;50.996;7.044;2023-03-21T07:48:05;7.78;;;3.55;;
11287;SDS011;5700;50.996;7.044;2023-03-21T07:51:06;7.18;;;3.15;;
11287;SDS011;5700;50.996;7.044;2023-03-21T07:54:08;10.20;;;3.28;;
11287;SDS011;5700;50.996;7.044;2023-03-21T07:57:11;10.65;;;2.97;;
11287;SDS011;5700;50.996;7.044;2023-03-21T08:00:13;8.23;;;2.75;;
11287;SDS011;5700;50.996;7.044;2023-03-21T08:03:21;9.90;;;4.35;;
11287;SDS011;5700;50.996;7.044;2023-03-21T08:06:26;9.25;;;3.72;;
11287;SDS011;5700;50.996;7.044;2023-03-21T08:09:27;6.75;;;3.88;;
11287;SDS011;5700;50.996;7.044;2023-03-21T08:12:30;10.57;;;4.60;;
11287;SDS011;5700;50.996;7.044;2023-03-21T08:15:32;12.25;;;4.00;;
11287;SDS011;5700;50.996;7.044;2023-03-21T08:18:33;10.27;;;3.15;;
11287;SDS011;5700;50.996;7.044;2023-03-21T08:21:34;13.68;;;4.15;;
11287;SDS011;5700;50.996;7.044;2023-03-21T08:24:38;9.75;;;3.83;;
11287;SDS011;5700;50.996;7.044;2023-03-21T08:27:41;7.80;;;4.00;;
11287;SDS011;5700;50.996;7.044;2023-03-21T08:30:43;8.57;;;3.88;;
11287;SDS011;5700;50.996;7.044;2023-03-21T08:33:45;7.78;;;3.63;;
11287;SDS011;5700;50.996;7.044;2023-03-21T08:36:50;7.90;;;4.18;;
11287;SDS011;5700;50.996;7.044;2023-03-21T08:39:51;10.95;;;4.68;;
11287;SDS011;5700;50.996;7.044;2023-03-21T08:42:54;12.60;;;4.32;;
11287;SDS011;5700;50.996;7.044;2023-03-21T08:45:55;7.07;;;3.78;;
11287;SDS011;5700;50.996;7.044;2023-03-21T08:48:57;10.02;;;3.53;;
11287;SDS011;5700;50.996;7.044;2023-03-21T08:51:59;8.90;;;3.42;;
11287;SDS011;5700;50.996;7.044;2023-03-21T08:55:00;9.30;;;3.65;;
11287;SDS011;5700;50.996;7.044;2023-03-21T08:58:04;6.68;;;2.80;;
11287;SDS011;5700;50.996;7.044;2023-03-21T09:01:06;10.43;;;3.25;;
11287;SDS011;5700;50.996;7.044;2023-03-21T09:04:14;7.63;;;3.05;;
11287;SDS011;5700;50.996;7.044;2023-03-21T09:07:17;13.13;;;5.30;;
11287;SDS011;5700;50.996;7.044;2023-03-21T09:10:20;10.90;;;4.35;;
11287;SDS011;5700;50.996;7.044;2023-03-21T09:13:24;10.38;;;4.18;;
11287;SDS011;5700;50.996;7.044;2023-03-21T09:16:25;10.32;;;3.58;;
11287;SDS011;5700;50.996;7.044;2023-03-21T09:19:26;10.45;;;3.60;;
11287;SDS011;5700;50.996;7.044;2023-03-21T09:22:29;9.82;;;4.53;;
11287;SDS011;5700;50.996;7.044;2023-03-21T09:25:31;9.73;;;4.65;;
11287;SDS011;5700;50.996;7.044;2023-03-21T09:28:34;16.42;;;4.38;;
11287;SDS011;5700;50.996;7.044;2023-03-21T09:31:38;9.20;;;4.55;;
11287;SDS011;5700;50.996;7.044;2023-03-21T09:34:39;9.77;;;3.92;;
11287;SDS011;5700;50.996;7.044;2023-03-21T09:37:41;13.48;;;4.70;;
11287;SDS011;5700;50.996;7.044;2023-03-21T09:40:46;10.93;;;4.32;;
11287;SDS011;5700;50.996;7.044;2023-03-21T09:43:58;13.35;;;4.80;;
11287;SDS011;5700;50.996;7.044;2023-03-21T09:47:09;12.35;;;4.05;;
11287;SDS011;5700;50.996;7.044;2023-03-21T09:50:17;10.07;;;4.55;;
11287;SDS011;5700;50.996;7.044;2023-03-21T09:53:21;9.65;;;4.45;;
11287;SDS011;5700;50.996;7.044;2023-03-21T09:56:26;9.45;;;3.78;;
11287;SDS011;5700;50.996;7.044;2023-03-21T09:59:30;7.45;;;3.33;;
11287;SDS011;5700;50.996;7.044;2023-03-21T10:02:37;8.88;;;2.90;;
11287;SDS011;5700;50.996;7.044;2023-03-21T10:05:39;6.47;;;2.67;;
11287;SDS011;5700;50.996;7.044;2023-03-21T10:08:44;7.25;;;2.63;;
11287;SDS011;5700;50.996;7.044;2023-03-21T10:11:47;7.57;;;2.75;;
11287;SDS011;5700;50.996;7.044;2023-03-21T10:14:52;6.93;;;2.83;;
11287;SDS011;5700;50.996;7.044;2023-03-21T10:17:58;8.48;;;3.55;;
11287;SDS011;5700;50.996;7.044;2023-03-21T10:21:01;7.90;;;3.58;;
11287;SDS011;5700;50.996;7.044;2023-03-21T10:24:04;8.15;;;3.67;;
11287;SDS011;5700;50.996;7.044;2023-03-21T10:27:05;7.82;;;3.33;;
11287;SDS011;5700;50.996;7.044;2023-03-21T10:30:10;9.43;;;2.80;;
11287;SDS011;5700;50.996;7.044;2023-03-21T10:33:22;11.15;;;3.25;;
11287;SDS011;5700;50.996;7.044;2023-03-21T10:36:25;9.60;;;2.83;;
11287;SDS011;5700;50.996;7.044;2023-03-21T10:39:31;8.27;;;2.35;;
11287;SDS011;5700;50.996;7.044;2023-03-21T10:42:34;6.03;;;3.13;;
11287;SDS011;5700;50.996;7.044;2023-03-21T10:45:37;9.40;;;2.65;;
11287;SDS011;5700;50.996;7.044;2023-03-21T10:48:39;8.35;;;2.55;;
11287;SDS011;5700;50.996;7.044;2023-03-21T10:51:45;9.98;;;3.35;;
11287;SDS011;5700;50.996;7.044;2023-03-21T10:54:47;9.55;;;4.13;;
11287;SDS011;5700;50.996;7.044;2023-03-21T10:57:52;10.00;;;2.35;;
11287;SDS011;5700;50.996;7.044;2023-03-21T11:01:00;6.43;;;2.78;;
11287;SDS011;5700;50.996;7.044;2023-03-21T11:04:05;5.93;;;2.50;;
11287;SDS011;5700;50.996;7.044;2023-03-21T11:07:10;3.53;;;1.80;;
11287;SDS011;5700;50.996;7.044;2023-03-21T11:10:15;7.75;;;2.78;;
11287;SDS011;5700;50.996;7.044;2023-03-21T11:13:32;5.13;;;2.22;;
11287;SDS011;5700;50.996;7.044;2023-03-21T11:16:37;7.68;;;2.40;;
11287;SDS011;5700;50.996;7.044;2023-03-21T11:19:40;8.07;;;2.53;;
11287;SDS011;5700;50.996;7.044;2023-03-21T11:22:41;6.97;;;2.65;;
11287;SDS011;5700;50.996;7.044;2023-03-21T11:25:44;3.75;;;2.25;;
11287;SDS011;5700;50.996;7.044;2023-03-21T11:28:48;6.75;;;2.88;;
11287;SDS011;5700;50.996;7.044;2023-03-21T11:31:52;8.02;;;2.85;;
11287;SDS011;5700;50.996;7.044;2023-03-21T11:34:55;10.38;;;2.90;;
11287;SDS011;5700;50.996;7.044;2023-03-21T11:37:58;8.23;;;3.03;;
11287;SDS011;5700;50.996;7.044;2023-03-21T11:41:00;7.75;;;3.08;;
11287;SDS011;5700;50.996;7.044;2023-03-21T11:44:03;8.60;;;2.63;;
11287;SDS011;5700;50.996;7.044;2023-03-21T11:47:07;6.10;;;2.47;;
11287;SDS011;5700;50.996;7.044;2023-03-21T11:50:13;9.40;;;2.78;;
11287;SDS011;5700;50.996;7.044;2023-03-21T11:53:19;7.70;;;3.05;;
11287;SDS011;5700;50.996;7.044;2023-03-21T11:56:27;6.97;;;3.05;;
11287;SDS011;5700;50.996;7.044;2023-03-21T11:59:32;7.45;;;2.55;;
11287;SDS011;5700;50.996;7.044;2023-03-21T12:06:04;11.50;;;3.17;;
11287;SDS011;5700;50.996;7.044;2023-03-21T12:12:35;7.43;;;2.78;;
11287;SDS011;5700;50.996;7.044;2023-03-21T12:15:39;12.15;;;3.13;;
11287;SDS011;5700;50.996;7.044;2023-03-21T12:18:50;5.20;;;2.53;;
11287;SDS011;5700;50.996;7.044;2023-03-21T12:22:09;5.50;;;2.60;;
11287;SDS011;5700;50.996;7.044;2023-03-21T12:25:14;6.70;;;2.78;;
11287;SDS011;5700;50.996;7.044;2023-03-21T12:28:22;6.15;;;2.72;;
11287;SDS011;5700;50.996;7.044;2023-03-21T12:31:31;7.05;;;3.05;;
11287;SDS011;5700;50.996;7.044;2023-03-21T12:34:47;7.50;;;2.80;;
11287;SDS011;5700;50.996;7.044;2023-03-21T12:37:56;6.53;;;2.80;;
11287;SDS011;5700;50.996;7.044;2023-03-21T12:41:07;7.82;;;3.65;;
11287;SDS011;5700;50.996;7.044;2023-03-21T12:44:14;4.78;;;2.60;;
11287;SDS011;5700;50.996;7.044;2023-03-21T12:47:18;9.18;;;3.95;;
11287;SDS011;5700;50.996;7.044;2023-03-21T12:50:24;4.68;;;2.40;;
11287;SDS011;5700;50.996;7.044;2023-03-21T12:53:28;3.20;;;1.63;;
11287;SDS011;5700;50.996;7.044;2023-03-21T12:56:36;3.25;;;1.73;;
11287;SDS011;5700;50.996;7.044;2023-03-21T12:59:42;4.70;;;2.67;;
11287;SDS011;5700;50.996;7.044;2023-03-21T13:02:47;4.15;;;2.13;;
11287;SDS011;5700;50.996;7.044;2023-03-21T13:05:52;3.15;;;2.35;;
11287;SDS011;5700;50.996;7.044;2023-03-21T13:08:57;6.03;;;2.38;;
11287;SDS011;5700;50.996;7.044;2023-03-21T13:12:02;3.63;;;2.22;;
11287;SDS011;5700;50.996;7.044;2023-03-21T13:15:13;5.00;;;2.33;;
11287;SDS011;5700;50.996;7.044;2023-03-21T13:18:24;7.93;;;3.00;;
11287;SDS011;5700;50.996;7.044;2023-03-21T13:21:37;7.15;;;3.20;;
11287;SDS011;5700;50.996;7.044;2023-03-21T13:24:45;10.00;;;3.13;;
11287;SDS011;5700;50.996;7.044;2023-03-21T13:27:50;7.28;;;3.05;;
11287;SDS011;5700;50.996;7.044;2023-03-21T13:30:53;8.18;;;3.25;;
11287;SDS011;5700;50.996;7.044;2023-03-21T13:34:19;9.15;;;3.45;;
11287;SDS011;5700;50.996;7.044;2023-03-21T13:37:22;5.47;;;3.05;;
11287;SDS011;5700;50.996;7.044;2023-03-21T13:40:26;7.00;;;3.65;;
11287;SDS011;5700;50.996;7.044;2023-03-21T13:43:32;5.22;;;2.33;;
11287;SDS011;5700;50.996;7.044;2023-03-21T13:46:41;5.35;;;3.03;;
11287;SDS011;5700;50.996;7.044;2023-03-21T13:49:44;4.47;;;2.75;;
11287;SDS011;5700;50.996;7.044;2023-03-21T13:53:21;9.35;;;2.15;;
11287;SDS011;5700;50.996;7.044;2023-03-21T13:56:24;6.30;;;2.40;;
11287;SDS011;5700;50.996;7.044;2023-03-21T14:02:50;5.82;;;2.55;;
11287;SDS011;5700;50.996;7.044;2023-03-21T14:05:54;7.40;;;2.58;;
11287;SDS011;5700;50.996;7.044;2023-03-21T14:08:56;5.88;;;2.15;;
11287;SDS011;5700;50.996;7.044;2023-03-21T14:11:58;5.75;;;2.67;;
11287;SDS011;5700;50.996;7.044;2023-03-21T14:15:02;4.97;;;2.50;;
11287;SDS011;5700;50.996;7.044;2023-03-21T14:18:06;5.88;;;2.45;;
11287;SDS011;5700;50.996;7.044;2023-03-21T14:21:12;7.13;;;2.67;;
11287;SDS011;5700;50.996;7.044;2023-03-21T14:24:16;4.05;;;2.47;;
11287;SDS011;5700;50.996;7.044;2023-03-21T14:27:18;6.28;;;1.90;;
11287;SDS011;5700;50.996;7.044;2023-03-21T14:30:20;4.78;;;2.15;;
11287;SDS011;5700;50.996;7.044;2023-03-21T14:33:27;5.95;;;2.20;;
11287;SDS011;5700;50.996;7.044;2023-03-21T14:36:32;5.85;;;2.50;;
11287;SDS011;5700;50.996;7.044;2023-03-21T14:39:39;5.13;;;2.42;;
11287;SDS011;5700;50.996;7.044;2023-03-21T14:42:40;4.63;;;2.03;;
11287;SDS011;5700;50.996;7.044;2023-03-21T14:45:47;4.80;;;2.17;;
11287;SDS011;5700;50.996;7.044;2023-03-21T14:48:53;4.75;;;2.00;;
11287;SDS011;5700;50.996;7.044;2023-03-21T14:51:55;5.18;;;1.75;;
11287;SDS011;5700;50.996;7.044;2023-03-21T14:54:57;4.13;;;2.40;;
11287;SDS011;5700;50.996;7.044;2023-03-21T14:58:00;2.22;;;1.20;;
11287;SDS011;5700;50.996;7.044;2023-03-21T15:01:02;3.83;;;1.60;;
11287;SDS011;5700;50.996;7.044;2023-03-21T15:04:09;4.05;;;1.23;;
11287;SDS011;5700;50.996;7.044;2023-03-21T15:07:22;4.63;;;1.55;;
11287;SDS011;5700;50.996;7.044;2023-03-21T15:10:25;1.27;;;1.00;;
11287;SDS011;5700;50.996;7.044;2023-03-21T15:13:28;1.60;;;1.00;;
11287;SDS011;5700;50.996;7.044;2023-03-21T15:16:31;2.88;;;1.38;;
11287;SDS011;5700;50.996;7.044;2023-03-21T15:19:36;1.85;;;1.00;;
11287;SDS011;5700;50.996;7.044;2023-03-21T15:22:38;3.25;;;1.50;;
11287;SDS011;5700;50.996;7.044;2023-03-21T15:25:41;1.73;;;1.00;;
11287;SDS011;5700;50.996;7.044;2023-03-21T15:28:43;2.05;;;1.30;;
11287;SDS011;5700;50.996;7.044;2023-03-21T15:31:46;2.42;;;1.10;;
11287;SDS011;5700;50.996;7.044;2023-03-21T15:34:49;2.17;;;1.02;;
11287;SDS011;5700;50.996;7.044;2023-03-21T15:37:53;3.33;;;1.77;;
11287;SDS011;5700;50.996;7.044;2023-03-21T15:44:14;3.03;;;1.17;;
11287;SDS011;5700;50.996;7.044;2023-03-21T15:47:27;2.65;;;1.05;;
11287;SDS011;5700;50.996;7.044;2023-03-21T15:50:37;2.05;;;1.23;;
11287;SDS011;5700;50.996;7.044;2023-03-21T15:53:40;1.80;;;1.35;;
11287;SDS011;5700;50.996;7.044;2023-03-21T15:56:43;2.10;;;1.00;;
11287;SDS011;5700;50.996;7.044;2023-03-21T15:59:45;1.42;;;0.80;;
11287;SDS011;5700;50.996;7.044;2023-03-21T16:02:47;8.13;;;1.52;;
11287;SDS011;5700;50.996;7.044;2023-03-21T16:09:09;3.20;;;1.40;;
11287;SDS011;5700;50.996;7.044;2023-03-21T16:12:13;3.65;;;1.50;;
11287;SDS011;5700;50.996;7.044;2023-03-21T16:15:15;2.33;;;1.40;;
11287;SDS011;5700;50.996;7.044;2023-03-21T16:18:16;2.63;;;1.52;;
11287;SDS011;5700;50.996;7.044;2023-03-21T16:21:20;3.38;;;1.52;;
11287;SDS011;5700;50.996;7.044;2023-03-21T16:24:22;3.30;;;1.33;;
11287;SDS011;5700;50.996;7.044;2023-03-21T16:27:24;3.50;;;1.50;;
11287;SDS011;5700;50.996;7.044;2023-03-21T16:30:25;2.65;;;1.52;;
11287;SDS011;5700;50.996;7.044;2023-03-21T16:33:26;5.38;;;1.55;;
11287;SDS011;5700;50.996;7.044;2023-03-21T16:36:30;2.88;;;1.45;;
11287;SDS011;5700;50.996;7.044;2023-03-21T16:39:32;2.40;;;1.63;;
11287;SDS011;5700;50.996;7.044;2023-03-21T16:42:34;4.68;;;1.50;;
11287;SDS011;5700;50.996;7.044;2023-03-21T16:45:35;2.13;;;1.30;;
11287;SDS011;5700;50.996;7.044;2023-03-21T16:48:37;3.63;;;1.33;;
11287;SDS011;5700;50.996;7.044;2023-03-21T16:51:40;2.65;;;1.60;;
11287;SDS011;5700;50.996;7.044;2023-03-21T16:54:41;6.03;;;1.60;;
11287;SDS011;5700;50.996;7.044;2023-03-21T16:57:43;3.92;;;1.40;;
11287;SDS011;5700;50.996;7.044;2023-03-21T17:00:45;2.88;;;1.67;;
11287;SDS011;5700;50.996;7.044;2023-03-21T17:03:47;5.50;;;1.60;;
11287;SDS011;5700;50.996;7.044;2023-03-21T17:06:50;5.90;;;1.60;;
11287;SDS011;5700;50.996;7.044;2023-03-21T17:09:52;3.20;;;1.70;;
11287;SDS011;5700;50.996;7.044;2023-03-21T17:12:54;4.20;;;2.20;;
11287;SDS011;5700;50.996;7.044;2023-03-21T17:15:55;3.33;;;1.30;;
11287;SDS011;5700;50.996;7.044;2023-03-21T17:18:57;2.70;;;1.48;;
11287;SDS011;5700;50.996;7.044;2023-03-21T17:22:01;11.70;;;1.90;;
11287;SDS011;5700;50.996;7.044;2023-03-21T17:25:02;3.47;;;1.80;;
11287;SDS011;5700;50.996;7.044;2023-03-21T17:28:05;12.32;;;1.70;;
11287;SDS011;5700;50.996;7.044;2023-03-21T17:34:12;3.10;;;1.55;;
11287;SDS011;5700;50.996;7.044;2023-03-21T17:37:15;4.55;;;1.88;;
11287;SDS011;5700;50.996;7.044;2023-03-21T17:40:18;3.13;;;1.40;;
11287;SDS011;5700;50.996;7.044;2023-03-21T17:43:21;3.17;;;1.50;;
11287;SDS011;5700;50.996;7.044;2023-03-21T17:46:23;4.28;;;1.63;;
11287;SDS011;5700;50.996;7.044;2023-03-21T17:49:26;3.13;;;1.50;;
11287;SDS011;5700;50.996;7.044;2023-03-21T17:52:28;2.67;;;1.45;;
11287;SDS011;5700;50.996;7.044;2023-03-21T17:55:30;2.53;;;1.60;;
11287;SDS011;5700;50.996;7.044;2023-03-21T17:58:32;3.50;;;1.33;;
11287;SDS011;5700;50.996;7.044;2023-03-21T18:01:33;5.55;;;1.42;;
11287;SDS011;5700;50.996;7.044;2023-03-21T18:04:35;2.78;;;1.17;;
11287;SDS011;5700;50.996;7.044;2023-03-21T18:07:38;2.70;;;1.35;;
11287;SDS011;5700;50.996;7.044;2023-03-21T18:10:40;1.98;;;1.30;;
11287;SDS011;5700;50.996;7.044;2023-03-21T18:13:42;3.90;;;1.27;;
11287;SDS011;5700;50.996;7.044;2023-03-21T18:16:43;1.35;;;1.05;;
11287;SDS011;5700;50.996;7.044;2023-03-21T18:19:45;2.67;;;1.33;;
11287;SDS011;5700;50.996;7.044;2023-03-21T18:22:48;1.67;;;1.15;;
11287;SDS011;5700;50.996;7.044;2023-03-21T18:25:50;6.07;;;2.17;;
11287;SDS011;5700;50.996;7.044;2023-03-21T18:28:52;5.00;;;1.50;;
11287;SDS011;5700;50.996;7.044;2023-03-21T18:31:53;1.80;;;1.15;;
11287;SDS011;5700;50.996;7.044;2023-03-21T18:34:55;2.50;;;1.40;;
11287;SDS011;5700;50.996;7.044;2023-03-21T18:37:59;3.70;;;1.48;;
11287;SDS011;5700;50.996;7.044;2023-03-21T18:41:02;2.78;;;1.35;;
11287;SDS011;5700;50.996;7.044;2023-03-21T18:44:03;4.97;;;1.75;;
11287;SDS011;5700;50.996;7.044;2023-03-21T18:47:05;1.13;;;0.95;;
11287;SDS011;5700;50.996;7.044;2023-03-21T18:50:07;4.43;;;1.30;;
11287;SDS011;5700;50.996;7.044;2023-03-21T18:53:11;1.63;;;1.02;;
11287;SDS011;5700;50.996;7.044;2023-03-21T18:56:13;1.92;;;0.95;;
11287;SDS011;5700;50.996;7.044;2023-03-21T18:59:14;1.38;;;1.00;;
11287;SDS011;5700;50.996;7.044;2023-03-21T19:02:16;2.50;;;1.40;;
11287;SDS011;5700;50.996;7.044;2023-03-21T19:05:18;2.70;;;1.08;;
11287;SDS011;5700;50.996;7.044;2023-03-21T19:08:22;2.83;;;1.25;;
11287;SDS011;5700;50.996;7.044;2023-03-21T19:11:24;2.58;;;1.27;;